Impacts METAR Board
IDs:

KORD - Chicago/O'Hare Intl, IL, US

Updated at: 2200 UTC 01 Feb 2023
Potential Impact None Slight Moderate High
Time 01/10Z 01/11Z 01/12Z 01/13Z 01/14Z 01/15Z 01/16Z 01/17Z 01/18Z 01/19Z 01/20Z 01/21Z 01/22Z
Temp6 7 7 8 10 14 17 20 23 25 26 27 27
Dewpt-3 -3 -3 -3 -1 -0 2 2 5 7 6 7 7
Altim30.33 30.33 30.33 30.33 30.34 30.34 30.34 30.35 30.33 30.29 30.25 30.24 30.23
VIS10 10 10 10 10 10 10 10 10 10 10 10 10
CIG-- -- -- -- -- -- -- -- -- -- -- -- --
CoverCLRCLRCLRCLRCLRFEWFEWFEWFEWFEWFEWFEWFEW
FltCatVFRVFRVFRVFRVFRVFRVFRVFRVFRVFRVFRVFRVFR
WX--------------------------
WDir230230220220230220220220230220220210210
WSpd7 7 8 8 8 10 9 11 11 11 15 16 12
WGst-- -- -- -- -- 18 -- -- -- 20 21 21 --
Raw hourly METARs
KORD 010951Z 23007KT 10SM CLR M14/M19 A3033 RMK AO2 SLP285 T11441194
KORD 011051Z 23007KT 10SM CLR M14/M19 A3033 RMK AO2 SLP286 T11391194
KORD 011151Z 22008KT 10SM CLR M14/M19 A3033 RMK AO2 SLP287 4/003 T11391194 11133 21144 55000
KORD 011251Z 22008KT 10SM CLR M13/M19 A3033 RMK AO2 SLP286 T11331194
KORD 011351Z 23008KT 10SM CLR M12/M18 A3034 RMK AO2 SLP289 T11221183
KORD 011451Z 22010G18KT 10SM FEW250 M10/M18 A3034 RMK AO2 SLP290 T11001178 53004
KORD 011551Z 22009KT 10SM FEW250 M08/M17 A3034 RMK AO2 SLP289 T10831167
KORD 011651Z 22011KT 10SM FEW250 M07/M17 A3035 RMK AO2 SLP291 T10671167
KORD 011751Z 23011KT 10SM FEW250 M05/M15 A3033 RMK AO2 SLP284 4/003 933004 T10501150 11050 21139 58004
KORD 011851Z 22011G20KT 10SM FEW250 M04/M14 A3029 RMK AO2 SLP270 T10391139
KORD 011951Z 22015G21KT 10SM FEW250 M03/M14 A3025 RMK AO2 SLP258 T10331144
KORD 012051Z 21016G21KT 10SM FEW250 M03/M14 A3024 RMK AO2 SLP253 T10281139 56030
KORD 012151Z 21012KT 10SM FEW250 M03/M14 A3023 RMK AO2 SLP248 T10281139



Page loaded:  22:04 UTC  |   02:04 PM Pacific  |   03:04 PM Mountain  |   04:04 PM Central  |   05:04 PM Eastern

 

ADVISORIES

FORECASTS

FORECASTS

OBSERVATIONS

USER TOOLS

ABOUT US